Time;durP1;ratioP1;P1;durP2;ratioP2;P2;SDS_P1;SDS_P2;PMS_P1;PMS_P2;Temp;Humidity;BMP_temperature;BMP_pressure;BME280_temperature;BME280_humidity;BME280_pressure;Samples;Min_cycle;Max_cycle;Signal;HPM_P1;HPM_P2
2022/09/12 00:01:22;;;;;;;13.90;11.48;;;15.00;99.90;;;;;;5011316;28;20387;-79
2022/09/12 00:04:09;;;;;;;15.25;12.27;;;14.90;99.90;;;;;;5010424;28;20076;-80
2022/09/12 00:06:55;;;;;;;16.33;12.27;;;14.90;99.90;;;;;;5011398;28;20378;-80
2022/09/12 00:09:42;;;;;;;14.45;12.20;;;14.90;99.90;;;;;;4992746;28;20046;-81
2022/09/12 00:12:28;;;;;;;17.38;13.50;;;14.90;99.90;;;;;;4993970;28;20046;-80
2022/09/12 00:15:14;;;;;;;14.02;11.20;;;14.90;99.90;;;;;;4993791;28;20050;-81
2022/09/12 00:18:00;;;;;;;16.38;11.75;;;14.90;99.90;;;;;;5000728;28;20054;-82
2022/09/12 00:20:47;;;;;;;16.25;12.88;;;14.90;99.90;;;;;;4995661;28;20409;-80
2022/09/12 00:23:33;;;;;;;16.40;12.48;;;14.80;99.90;;;;;;5009799;28;20053;-81
2022/09/12 00:26:20;;;;;;;18.88;13.13;;;14.80;99.90;;;;;;5011025;28;20038;-81
2022/09/12 00:29:07;;;;;;;16.50;14.25;;;14.80;99.90;;;;;;5014424;28;20107;-82
2022/09/12 00:31:53;;;;;;;19.88;14.90;;;14.80;99.90;;;;;;5015060;28;20572;-80
2022/09/12 00:34:39;;;;;;;18.73;13.77;;;14.80;99.90;;;;;;4995262;28;20101;-79
2022/09/12 00:37:25;;;;;;;16.13;12.45;;;14.80;99.90;;;;;;4964310;28;20046;-79
2022/09/12 00:40:12;;;;;;;16.00;13.13;;;14.70;99.90;;;;;;4964595;28;20086;-80
2022/09/12 00:42:58;;;;;;;18.63;14.15;;;14.70;99.90;;;;;;4995979;28;20046;-79
2022/09/12 00:45:44;;;;;;;18.80;16.17;;;14.70;99.90;;;;;;4995662;28;20050;-80
2022/09/12 00:49:12;;;;;;;20.38;12.98;;;14.70;99.90;;;;;;4995263;28;20056;-80
2022/09/12 00:52:19;;;;;;;19.30;16.33;;;14.70;99.90;;;;;;4984087;28;20141;-78
2022/09/12 00:55:17;;;;;;;16.92;15.02;;;14.60;99.90;;;;;;4977140;28;20124;-78
2022/09/12 00:58:09;;;;;;;20.13;16.23;;;14.60;99.90;;;;;;4995642;28;20569;-79
2022/09/12 01:00:57;;;;;;;21.45;16.73;;;14.60;99.90;;;;;;4976519;28;20050;-79
2022/09/12 01:03:43;;;;;;;22.42;15.55;;;14.50;99.90;;;;;;4977975;28;20383;-80
2022/09/12 01:06:36;;;;;;;17.75;13.98;;;14.50;99.90;;;;;;4996314;28;20097;-80
2022/09/12 01:09:23;;;;;;;23.92;17.88;;;14.50;99.90;;;;;;4995844;28;20053;-79
2022/09/12 01:12:11;;;;;;;22.42;16.38;;;14.50;99.90;;;;;;4996864;28;20042;-79
2022/09/12 01:14:58;;;;;;;22.35;17.20;;;14.50;99.90;;;;;;4997508;28;20049;-79
2022/09/12 01:17:58;;;;;;;21.40;15.80;;;14.50;99.90;;;;;;4977370;28;20050;-79
2022/09/12 01:21:15;;;;;;;17.35;14.88;;;14.50;99.90;;;;;;4980580;28;20054;-80
2022/09/12 01:24:33;;;;;;;21.27;16.55;;;14.50;99.90;;;;;;4980969;28;20140;-80
2022/09/12 01:27:44;;;;;;;20.33;17.23;;;14.40;99.90;;;;;;4994069;28;20094;-79
2022/09/12 01:30:44;;;;;;;24.33;17.23;;;14.40;99.90;;;;;;4976391;28;20054;-80
2022/09/12 01:33:36;;;;;;;22.45;17.88;;;14.40;99.90;;;;;;5004354;28;20069;-79
2022/09/12 01:36:47;;;;;;;21.23;17.02;;;14.40;99.90;;;;;;5013951;28;20052;-79
2022/09/12 01:39:41;;;;;;;23.73;17.92;;;14.40;99.90;;;;;;5012184;28;20097;-81
2022/09/12 01:42:37;;;;;;;21.02;18.58;;;14.30;99.90;;;;;;5013387;28;20057;-77
2022/09/12 01:45:38;;;;;;;23.20;18.70;;;14.30;99.90;;;;;;4999316;28;20061;-79
2022/09/12 01:48:30;;;;;;;18.38;16.02;;;14.30;99.90;;;;;;5011997;28;20050;-79
2022/09/12 01:51:20;;;;;;;22.80;18.55;;;14.30;99.90;;;;;;4999312;28;20081;-79
2022/09/12 01:54:12;;;;;;;18.88;14.18;;;14.30;99.90;;;;;;5013127;28;20181;-79
2022/09/12 01:57:03;;;;;;;22.80;17.17;;;14.30;99.90;;;;;;5013193;28;20428;-80
2022/09/12 01:59:54;;;;;;;21.38;18.48;;;14.30;99.90;;;;;;5013773;28;20410;-81
2022/09/12 02:03:09;;;;;;;25.83;17.42;;;14.30;99.90;;;;;;5013207;28;20054;-80
2022/09/12 02:06:03;;;;;;;23.08;18.55;;;14.20;99.90;;;;;;4996429;28;20053;-82
2022/09/12 02:08:57;;;;;;;20.98;15.95;;;14.20;99.90;;;;;;5014769;28;20038;-79
2022/09/12 02:11:45;;;;;;;25.05;18.23;;;14.20;99.90;;;;;;5012534;28;20054;-79
2022/09/12 02:14:36;;;;;;;17.10;14.07;;;14.20;99.90;;;;;;5012732;28;20107;-78
2022/09/12 02:17:25;;;;;;;19.15;15.40;;;14.20;99.90;;;;;;4994740;28;20053;-79
2022/09/12 02:20:20;;;;;;;24.95;18.50;;;14.20;99.90;;;;;;5013209;28;20064;-78
2022/09/12 02:23:12;;;;;;;26.60;20.45;;;14.20;99.90;;;;;;5013354;28;20057;-79
2022/09/12 02:26:04;;;;;;;20.25;17.30;;;14.20;99.90;;;;;;5012273;28;20136;-80
2022/09/12 02:28:50;;;;;;;25.45;21.27;;;14.10;99.90;;;;;;5012322;28;20083;-78
2022/09/12 02:31:45;;;;;;;20.85;18.33;;;14.10;99.90;;;;;;5011466;28;20045;-79
2022/09/12 02:34:41;;;;;;;;;;;14.10;99.90;;;;;;5012034;28;20569;-80
2022/09/12 02:37:44;;;;;;;18.02;15.02;;;14.10;99.90;;;;;;4994369;28;19983;-79
2022/09/12 02:40:31;;;;;;;16.98;12.38;;;14.10;99.90;;;;;;5012749;28;20054;-80
2022/09/12 02:43:17;;;;;;;21.85;17.90;;;14.00;99.90;;;;;;4994222;28;20092;-79
2022/09/12 02:46:09;;;;;;;21.08;17.67;;;14.00;99.90;;;;;;4994539;28;20056;-80
2022/09/12 02:48:56;;;;;;;21.73;18.63;;;14.10;99.90;;;;;;5011717;28;20109;-80
2022/09/12 02:51:44;;;;;;;25.48;20.67;;;14.00;99.90;;;;;;4996301;28;20054;-79
2022/09/12 02:54:30;;;;;;;22.27;18.00;;;14.00;99.90;;;;;;4993744;28;20057;-79
2022/09/12 02:57:19;;;;;;;25.67;19.35;;;14.00;99.90;;;;;;4993894;28;20493;-80
2022/09/12 03:00:06;;;;;;;17.40;15.40;;;14.00;99.90;;;;;;4993929;28;20054;-78
2022/09/12 03:03:14;;;;;;;26.25;20.60;;;14.00;99.90;;;;;;4994233;28;20113;-79
2022/09/12 03:06:15;;;;;;;17.10;14.25;;;14.00;99.90;;;;;;5012515;28;20490;-79
2022/09/12 03:09:11;;;;;;;22.17;18.27;;;14.00;99.90;;;;;;5012158;28;20092;-80
2022/09/12 03:12:38;;;;;;;22.23;18.48;;;14.00;99.90;;;;;;5011605;28;20061;-79
2022/09/12 03:15:28;;;;;;;19.88;16.60;;;14.00;99.90;;;;;;4930852;28;20096;-79
2022/09/12 03:18:18;;;;;;;18.60;16.60;;;14.00;99.90;;;;;;4997180;28;20049;-78
2022/09/12 03:21:11;;;;;;;20.45;17.60;;;14.00;99.90;;;;;;4997260;28;20055;-79
2022/09/12 03:24:23;;;;;;;20.95;15.02;;;14.00;99.90;;;;;;5011075;28;20120;-79
2022/09/12 03:27:15;;;;;;;19.58;17.45;;;14.00;99.90;;;;;;5011608;28;20076;-79
2022/09/12 03:30:03;;;;;;;20.08;17.63;;;13.90;99.90;;;;;;5011185;28;20062;-79
2022/09/12 03:32:52;;;;;;;20.77;16.83;;;13.90;99.90;;;;;;4996925;28;20053;-79
2022/09/12 03:35:39;;;;;;;22.05;17.80;;;13.90;99.90;;;;;;5011390;28;20054;-78
2022/09/12 03:38:25;;;;;;;22.80;18.27;;;13.90;99.90;;;;;;5011276;28;20498;-79
2022/09/12 03:41:11;;;;;;;23.27;19.92;;;13.90;99.90;;;;;;4993209;28;20144;-81
2022/09/12 03:43:58;;;;;;;20.92;15.23;;;13.90;99.90;;;;;;4993349;28;20049;-79
2022/09/12 03:46:44;;;;;;;21.48;18.02;;;13.90;99.90;;;;;;5011995;28;20053;-79
2022/09/12 03:49:30;;;;;;;20.08;15.27;;;13.90;99.90;;;;;;5012150;28;20133;-80
2022/09/12 03:52:17;;;;;;;21.90;16.75;;;13.90;99.90;;;;;;5011155;28;20073;-79
2022/09/12 03:55:03;;;;;;;24.35;20.60;;;13.90;99.90;;;;;;4993658;28;20891;-79
2022/09/12 03:57:52;;;;;;;23.70;18.08;;;13.90;99.90;;;;;;5012189;28;20045;-79
2022/09/12 04:00:39;;;;;;;24.80;19.73;;;13.90;99.90;;;;;;4980272;28;20060;-79
2022/09/12 04:03:26;;;;;;;24.52;20.42;;;13.90;99.90;;;;;;4997039;28;20060;-79
2022/09/12 04:06:15;;;;;;;29.25;21.65;;;13.90;99.90;;;;;;4985322;28;20045;-80
2022/09/12 04:09:01;;;;;;;24.83;19.33;;;13.90;99.90;;;;;;4998133;28;20117;-78
2022/09/12 04:11:47;;;;;;;28.40;22.90;;;13.90;99.90;;;;;;4997524;28;20065;-80
2022/09/12 04:14:33;;;;;;;24.15;20.02;;;13.90;99.90;;;;;;5015025;28;20065;-78
2022/09/12 04:17:19;;;;;;;30.25;23.20;;;14.00;99.90;;;;;;4984106;28;20049;-80
2022/09/12 04:20:06;;;;;;;28.73;22.70;;;14.00;99.90;;;;;;5015345;28;20405;-79
2022/09/12 04:22:52;;;;;;;28.05;20.98;;;14.00;99.90;;;;;;5015006;28;20112;-79
2022/09/12 04:25:38;;;;;;;32.65;24.77;;;14.10;99.90;;;;;;5001351;28;20120;-80
2022/09/12 04:28:28;;;;;;;26.92;21.63;;;14.10;99.90;;;;;;4997729;28;20061;-79
2022/09/12 04:31:19;;;;;;;29.27;23.30;;;14.10;99.90;;;;;;4983397;28;20057;-78
2022/09/12 04:34:06;;;;;;;32.75;25.17;;;14.10;99.90;;;;;;5014068;28;20120;-80
2022/09/12 04:36:52;;;;;;;28.27;22.55;;;14.20;99.90;;;;;;4997080;28;20050;-80
2022/09/12 04:39:38;;;;;;;27.80;22.48;;;14.20;99.90;;;;;;4996755;28;20156;-79
2022/09/12 04:42:24;;;;;;;30.73;24.38;;;14.30;99.90;;;;;;5014194;28;20062;-79
2022/09/12 04:45:12;;;;;;;28.48;21.80;;;14.30;99.90;;;;;;4999112;28;20143;-79
2022/09/12 04:47:58;;;;;;;24.67;19.10;;;14.30;99.90;;;;;;5001020;28;20193;-80
2022/09/12 04:50:45;;;;;;;33.88;25.25;;;14.30;99.90;;;;;;4997112;28;20517;-80
2022/09/12 04:53:31;;;;;;;32.53;23.92;;;14.40;99.90;;;;;;4984479;28;20046;-80
2022/09/12 04:56:18;;;;;;;27.83;21.67;;;14.50;99.90;;;;;;4986113;28;20584;-79
2022/09/12 04:59:05;;;;;;;27.65;22.60;;;14.50;99.90;;;;;;5013471;28;20528;-79
2022/09/12 05:01:51;;;;;;;29.63;21.75;;;14.50;99.90;;;;;;4982780;28;20482;-79
2022/09/12 05:04:38;;;;;;;33.10;24.38;;;14.60;99.90;;;;;;4995751;28;20086;-80
2022/09/12 05:07:24;;;;;;;29.25;21.67;;;14.60;99.90;;;;;;5002280;28;20050;-79
2022/09/12 05:10:11;;;;;;;29.15;22.83;;;14.70;99.90;;;;;;4999307;28;20073;-78
2022/09/12 05:12:57;;;;;;;24.65;19.35;;;14.70;99.90;;;;;;4998458;28;20050;-78
2022/09/12 05:15:56;;;;;;;27.40;21.17;;;14.70;99.90;;;;;;4999267;28;20054;-81
2022/09/12 05:18:43;;;;;;;24.83;21.00;;;14.70;99.90;;;;;;5013780;28;20132;-80
2022/09/12 05:21:29;;;;;;;31.42;22.92;;;14.80;99.90;;;;;;5013798;28;20133;-79
2022/09/12 05:24:18;;;;;;;32.08;23.10;;;14.70;99.90;;;;;;4983187;28;20049;-78
2022/09/12 05:27:04;;;;;;;28.70;22.30;;;14.80;99.90;;;;;;4982747;28;20501;-77
2022/09/12 05:29:50;;;;;;;27.98;21.48;;;14.80;99.90;;;;;;5013793;28;20406;-79
2022/09/12 05:32:36;;;;;;;30.52;21.27;;;14.80;99.90;;;;;;5012824;28;20089;-79
2022/09/12 05:35:23;;;;;;;28.30;21.20;;;14.90;99.90;;;;;;5013506;28;20471;-79
2022/09/12 05:38:09;;;;;;;26.92;20.33;;;14.90;99.90;;;;;;4996051;28;20061;-80
2022/09/12 05:41:10;;;;;;;26.30;21.30;;;14.90;99.90;;;;;;5012741;28;20112;-79
2022/09/12 05:43:58;;;;;;;28.58;20.50;;;14.90;99.90;;;;;;5000417;28;20092;-81
2022/09/12 05:46:49;;;;;;;27.08;21.00;;;14.90;99.90;;;;;;5014471;28;20045;-79
2022/09/12 05:49:36;;;;;;;26.38;20.35;;;15.00;99.90;;;;;;5012952;28;20085;-78
2022/09/12 05:52:22;;;;;;;30.50;21.20;;;15.00;99.90;;;;;;5013370;28;20038;-77
2022/09/12 05:55:08;;;;;;;25.98;19.67;;;15.00;99.90;;;;;;5012420;28;20080;-80
2022/09/12 05:57:55;;;;;;;26.38;20.60;;;15.10;99.90;;;;;;5012839;28;20116;-80
2022/09/12 06:00:41;;;;;;;29.58;21.50;;;15.10;99.90;;;;;;4995467;28;20085;-82
2022/09/12 06:03:27;;;;;;;28.83;20.85;;;15.10;99.90;;;;;;4998669;28;20054;-81
2022/09/12 06:06:15;;;;;;;27.20;20.95;;;15.10;99.90;;;;;;4995441;28;20497;-79
2022/09/12 06:09:03;;;;;;;27.63;20.27;;;15.20;99.90;;;;;;4997974;28;20054;-79
2022/09/12 06:11:50;;;;;;;29.02;21.30;;;15.20;99.90;;;;;;5012437;28;20060;-81
2022/09/12 06:14:37;;;;;;;25.83;19.88;;;15.30;99.90;;;;;;5012628;28;20116;-79
2022/09/12 06:17:23;;;;;;;30.17;22.05;;;15.30;99.90;;;;;;5012431;28;20505;-79
2022/09/12 06:20:10;;;;;;;28.23;20.98;;;15.30;99.90;;;;;;4995346;28;20052;-80
2022/09/12 06:22:56;;;;;;;29.02;20.50;;;15.40;99.90;;;;;;4997472;28;20417;-80
2022/09/12 06:25:48;;;;;;;27.52;21.52;;;15.40;99.90;;;;;;4994726;28;20049;-79
2022/09/12 06:28:37;;;;;;;28.90;22.10;;;15.40;99.90;;;;;;4994824;28;20132;-80
2022/09/12 06:31:30;;;;;;;30.38;21.67;;;15.50;99.90;;;;;;5012389;28;20057;-80
2022/09/12 06:34:16;;;;;;;31.95;20.77;;;15.50;99.90;;;;;;4981494;28;20053;-79
2022/09/12 06:37:02;;;;;;;30.65;22.60;;;15.50;99.90;;;;;;4995089;28;20054;-80
2022/09/12 06:39:49;;;;;;;29.20;21.20;;;15.60;99.90;;;;;;5013187;28;20137;-80
2022/09/12 06:42:35;;;;;;;27.38;20.35;;;15.60;99.90;;;;;;5014295;28;20045;-79
2022/09/12 06:45:21;;;;;;;26.98;20.70;;;15.70;99.90;;;;;;5015643;28;20053;-81
2022/09/12 06:48:07;;;;;;;31.48;20.77;;;15.70;99.90;;;;;;5000496;28;20064;-79
2022/09/12 06:50:59;;;;;;;27.15;19.95;;;15.70;99.90;;;;;;5011624;28;20053;-80
2022/09/12 06:53:46;;;;;;;27.38;21.52;;;15.80;99.90;;;;;;4994321;28;20050;-81
2022/09/12 06:56:33;;;;;;;31.85;21.55;;;15.90;99.90;;;;;;5014068;28;20054;-81
2022/09/12 06:59:19;;;;;;;29.88;20.67;;;16.00;99.90;;;;;;5011444;28;20046;-80
2022/09/12 07:02:06;;;;;;;32.80;22.20;;;16.00;99.90;;;;;;5010837;28;20497;-78
2022/09/12 07:04:52;;;;;;;29.80;20.95;;;16.10;99.90;;;;;;4993755;28;20137;-79
2022/09/12 07:07:38;;;;;;;31.00;21.95;;;16.20;99.90;;;;;;5010240;28;20133;-80
2022/09/12 07:10:26;;;;;;;29.00;20.35;;;16.20;99.90;;;;;;4994052;28;20049;-80
2022/09/12 07:13:12;;;;;;;33.25;21.10;;;16.20;99.90;;;;;;4993679;28;20112;-80
2022/09/12 07:16:03;;;;;;;30.27;21.73;;;16.30;99.90;;;;;;4994941;28;20050;-80
2022/09/12 07:18:52;;;;;;;33.35;21.90;;;16.30;99.90;;;;;;5012186;28;20143;-78
2022/09/12 07:21:39;;;;;;;31.98;21.95;;;16.40;99.90;;;;;;5011459;28;20413;-80
2022/09/12 07:24:28;;;;;;;29.08;20.63;;;16.40;99.90;;;;;;4981537;28;20049;-80
2022/09/12 07:27:14;;;;;;;30.90;22.67;;;16.50;99.90;;;;;;4994565;28;20053;-79
2022/09/12 07:30:01;;;;;;;30.98;22.70;;;16.60;99.90;;;;;;5011721;28;20058;-78
2022/09/12 07:32:51;;;;;;;30.92;22.00;;;16.60;99.90;;;;;;4993850;28;20436;-79
2022/09/12 07:35:37;;;;;;;35.00;24.27;;;16.70;99.90;;;;;;4983868;28;20050;-80
2022/09/12 07:38:24;;;;;;;38.92;25.25;;;16.70;99.90;;;;;;4993932;28;20050;-80
2022/09/12 07:41:22;;;;;;;39.13;24.05;;;16.80;99.90;;;;;;4998337;28;20057;-79
2022/09/12 07:44:08;;;;;;;36.97;24.52;;;16.80;99.90;;;;;;4994808;28;20451;-80
2022/09/12 07:46:54;;;;;;;33.97;25.75;;;16.90;99.90;;;;;;5011637;28;20409;-79
2022/09/12 07:49:41;;;;;;;36.35;24.20;;;17.00;99.90;;;;;;4993514;28;20501;-80
2022/09/12 07:52:27;;;;;;;36.85;24.67;;;17.00;99.90;;;;;;4997485;28;20077;-79
2022/09/12 07:55:13;;;;;;;36.88;25.92;;;17.10;99.90;;;;;;5009762;28;20494;-80
2022/09/12 07:57:59;;;;;;;42.85;28.75;;;17.10;99.90;;;;;;4996323;28;20049;-80
2022/09/12 08:00:45;;;;;;;35.60;25.63;;;17.20;99.90;;;;;;5009868;28;20054;-80
2022/09/12 08:03:32;;;;;;;35.38;25.95;;;17.20;99.90;;;;;;5010778;28;20042;-80
2022/09/12 08:06:22;;;;;;;41.00;28.20;;;17.20;99.90;;;;;;4997570;28;20050;-80
2022/09/12 08:09:10;;;;;;;42.15;29.05;;;17.30;99.90;;;;;;5010632;28;20115;-81
2022/09/12 08:11:57;;;;;;;41.00;28.02;;;17.40;99.90;;;;;;4993255;28;20049;-80
2022/09/12 08:14:43;;;;;;;45.22;30.52;;;17.60;99.90;;;;;;4992313;28;20050;-80
2022/09/12 08:17:29;;;;;;;47.08;31.95;;;17.60;99.90;;;;;;5009722;28;20050;-79
2022/09/12 08:20:16;;;;;;;43.08;31.05;;;17.70;99.90;;;;;;4996180;28;20077;-80
2022/09/12 08:23:03;;;;;;;51.13;34.05;;;17.90;99.90;;;;;;5010370;28;20070;-81
2022/09/12 08:25:49;;;;;;;49.67;33.92;;;18.00;99.90;;;;;;5010425;28;20076;-80
2022/09/12 08:28:36;;;;;;;50.22;33.38;;;18.10;99.90;;;;;;4993095;28;20088;-78
2022/09/12 08:31:24;;;;;;;50.78;35.47;;;18.20;99.90;;;;;;5010174;28;20421;-80
2022/09/12 08:34:10;;;;;;;50.10;34.28;;;18.20;99.90;;;;;;4993452;28;20083;-79
2022/09/12 08:36:56;;;;;;;53.55;35.63;;;18.30;99.90;;;;;;4981395;28;20060;-79
2022/09/12 08:39:42;;;;;;;51.45;34.67;;;18.50;99.90;;;;;;5011060;28;20092;-79
2022/09/12 08:42:51;;;;;;;53.13;34.72;;;18.60;99.90;;;;;;5011175;28;20053;-79
2022/09/12 08:45:56;;;;;;;52.50;32.60;;;18.70;99.90;;;;;;4996360;28;20053;-79
2022/09/12 08:48:44;;;;;;;;;;;18.70;99.90;;;;;;4998327;28;20113;-80
2022/09/12 08:51:33;;;;;;;47.25;33.15;;;18.70;99.90;;;;;;4999662;28;19932;-79
2022/09/12 08:54:29;;;;;;;51.45;33.03;;;18.70;99.90;;;;;;5013531;28;20089;-78
2022/09/12 08:57:16;;;;;;;48.88;32.70;;;18.70;99.90;;;;;;5014880;28;20081;-79
2022/09/12 09:00:04;;;;;;;52.13;32.78;;;18.70;99.90;;;;;;4999500;28;20132;-79
2022/09/12 09:03:03;;;;;;;48.53;33.22;;;18.70;99.90;;;;;;5013950;28;20054;-79
2022/09/12 09:06:07;;;;;;;52.20;34.35;;;18.80;99.90;;;;;;5013697;28;20050;-79
2022/09/12 09:09:05;;;;;;;50.95;34.28;;;19.00;99.90;;;;;;4995643;28;20054;-78
2022/09/12 09:12:25;;;;;;;58.55;36.15;;;19.00;99.90;;;;;;4995629;28;20136;-78
2022/09/12 09:15:32;;;;;;;55.25;37.13;;;19.10;99.90;;;;;;5013182;28;20054;-80
2022/09/12 09:18:34;;;;;;;57.90;37.53;;;19.20;99.90;;;;;;4996626;28;20457;-80
2022/09/12 09:21:26;;;;;;;57.58;36.85;;;19.40;99.90;;;;;;5013077;28;20050;-79
2022/09/12 09:24:17;;;;;;;55.92;36.75;;;19.80;99.90;;;;;;5013556;28;20081;-79
2022/09/12 09:27:34;;;;;;;56.80;37.55;;;19.90;99.90;;;;;;5014433;28;20054;-79
2022/09/12 09:30:20;;;;;;;54.83;36.25;;;20.10;99.90;;;;;;5008254;28;20046;-81
2022/09/12 09:33:17;;;;;;;52.40;34.70;;;20.10;99.90;;;;;;5013649;28;20140;-80
2022/09/12 09:36:48;;;;;;;49.90;35.05;;;20.30;99.90;;;;;;4996365;28;20054;-80
2022/09/12 09:39:59;;;;;;;51.95;35.85;;;20.40;99.90;;;;;;4999883;28;20144;-80
2022/09/12 09:42:59;;;;;;;51.85;33.72;;;20.70;99.90;;;;;;5014366;28;20100;-80
2022/09/12 09:45:45;;;;;;;53.75;35.10;;;21.00;99.90;;;;;;5013032;28;20050;-80
2022/09/12 09:48:40;;;;;;;57.08;34.80;;;21.00;99.90;;;;;;5013095;28;20077;-81
2022/09/12 09:51:32;;;;;;;48.83;32.50;;;21.20;99.90;;;;;;4998553;28;20077;-80
2022/09/12 09:54:43;;;;;;;45.85;31.38;;;21.50;99.90;;;;;;5012735;28;20061;-80
2022/09/12 09:57:35;;;;;;;45.83;30.38;;;21.70;99.90;;;;;;5012901;28;20505;-80
2022/09/12 10:00:33;;;;;;;49.17;31.35;;;21.80;99.90;;;;;;4993949;28;20046;-80
2022/09/12 10:03:33;;;;;;;44.47;28.75;;;21.80;99.90;;;;;;4999133;28;20064;-80
2022/09/12 10:06:22;;;;;;;42.45;28.60;;;21.80;99.90;;;;;;5012807;28;20558;-80
2022/09/12 10:09:18;;;;;;;42.30;26.15;;;21.80;99.90;;;;;;4994681;28;20145;-80
2022/09/12 10:12:27;;;;;;;46.35;27.50;;;21.90;99.90;;;;;;5012504;28;20050;-81
2022/09/12 10:15:28;;;;;;;44.08;24.58;;;21.70;99.90;;;;;;5012919;28;20144;-80
2022/09/12 10:18:37;;;;;;;31.60;21.90;;;21.80;99.90;;;;;;5011374;28;20514;-81
2022/09/12 10:21:34;;;;;;;32.78;21.23;;;21.70;99.90;;;;;;4998857;28;20077;-79
2022/09/12 10:24:40;;;;;;;33.97;19.23;;;22.10;99.90;;;;;;5012614;28;20060;-80
2022/09/12 10:27:31;;;;;;;31.50;20.20;;;22.50;99.90;;;;;;5013360;28;20088;-80
2022/09/12 10:30:20;;;;;;;32.33;20.90;;;22.80;99.90;;;;;;5012021;28;20049;-80
2022/09/12 10:33:11;;;;;;;35.40;20.60;;;22.90;99.90;;;;;;5011243;28;20136;-82
2022/09/12 10:35:58;;;;;;;29.23;19.60;;;23.30;99.90;;;;;;5011731;28;20061;-81
2022/09/12 10:38:55;;;;;;;29.67;19.55;;;23.30;99.90;;;;;;4998508;28;20524;-79
2022/09/12 10:41:41;;;;;;;27.38;18.70;;;23.40;99.00;;;;;;5011994;28;20536;-80
2022/09/12 10:44:30;;;;;;;27.35;17.83;;;23.60;99.90;;;;;;5012398;28;20097;-79
2022/09/12 10:47:23;;;;;;;27.73;16.70;;;23.80;99.10;;;;;;4993696;28;20049;-78
2022/09/12 10:50:42;;;;;;;22.58;15.90;;;24.30;99.20;;;;;;5012789;28;20094;-80
2022/09/12 10:53:38;;;;;;;24.00;15.93;;;24.80;98.50;;;;;;5007592;28;20580;-82
2022/09/12 10:57:10;;;;;;;19.58;14.02;;;25.00;97.50;;;;;;4997966;28;20112;-79
2022/09/12 11:00:16;;;;;;;19.77;14.43;;;25.20;96.60;;;;;;4993559;28;20045;-80
2022/09/12 11:03:18;;;;;;;21.02;12.85;;;25.60;96.10;;;;;;4994801;28;20046;-81
2022/09/12 11:06:07;;;;;;;20.55;13.45;;;25.80;96.00;;;;;;5011909;28;20129;-78
2022/09/12 11:09:04;;;;;;;22.45;13.48;;;26.10;95.80;;;;;;5011648;28;20042;-79
2022/09/12 11:12:09;;;;;;;20.05;13.90;;;26.20;95.50;;;;;;4996398;28;20038;-78
2022/09/12 11:15:21;;;;;;;20.80;14.13;;;26.30;95.30;;;;;;4993581;28;20061;-79
2022/09/12 11:18:22;;;;;;;17.73;11.73;;;26.10;94.80;;;;;;5012265;28;20054;-80
2022/09/12 11:21:24;;;;;;;17.25;12.20;;;27.10;94.40;;;;;;5011369;28;20061;-79
2022/09/12 11:24:28;;;;;;;20.45;11.70;;;27.50;93.30;;;;;;5011599;28;20050;-79
2022/09/12 11:27:42;;;;;;;19.87;12.40;;;27.70;93.20;;;;;;4997151;28;20046;-80
2022/09/12 11:30:38;;;;;;;18.27;13.35;;;27.80;92.00;;;;;;5011871;28;20677;-79
2022/09/12 11:33:49;;;;;;;15.98;10.48;;;27.90;92.30;;;;;;5011389;28;20132;-79
2022/09/12 11:36:38;;;;;;;16.60;9.40;;;27.60;91.90;;;;;;4979515;28;20093;-78
2022/09/12 11:39:45;;;;;;;13.50;9.15;;;27.70;92.00;;;;;;4993445;28;20135;-79
2022/09/12 11:42:37;;;;;;;10.65;7.47;;;27.60;91.60;;;;;;5011830;28;20081;-78
2022/09/12 11:45:29;;;;;;;10.48;7.07;;;27.30;91.30;;;;;;5010445;28;20058;-81
2022/09/12 11:48:30;;;;;;;13.20;8.55;;;28.00;91.00;;;;;;5011255;28;20129;-80
2022/09/12 11:51:20;;;;;;;13.32;7.00;;;28.40;89.90;;;;;;5010508;28;20046;-83
2022/09/12 11:54:21;;;;;;;13.98;8.57;;;28.60;90.70;;;;;;4996553;28;20065;-81
2022/09/12 11:57:36;;;;;;;10.57;7.28;;;28.80;89.10;;;;;;4994476;28;20054;-81
2022/09/12 12:00:49;;;;;;;12.95;7.70;;;28.90;87.60;;;;;;5010771;28;20418;-83
2022/09/12 12:03:42;;;;;;;13.93;9.65;;;28.80;87.40;;;;;;4980685;28;20073;-79
2022/09/12 12:06:47;;;;;;;16.10;9.45;;;29.50;84.50;;;;;;5011800;28;20053;-79
2022/09/12 12:09:48;;;;;;;15.55;7.70;;;29.50;84.90;;;;;;4993014;28;20502;-79
2022/09/12 12:12:34;;;;;;;12.75;7.47;;;28.90;85.50;;;;;;5011070;28;20069;-79
2022/09/12 12:15:23;;;;;;;15.75;8.10;;;29.10;86.40;;;;;;5011748;28;20412;-80
2022/09/12 12:18:30;;;;;;;12.73;8.98;;;29.00;85.80;;;;;;5010681;28;20097;-80
2022/09/12 12:21:36;;;;;;;11.07;6.70;;;28.60;85.60;;;;;;4992400;28;20054;-79
2022/09/12 12:24:27;;;;;;;10.93;7.22;;;28.40;84.40;;;;;;5013817;28;20104;-79
2022/09/12 12:27:44;;;;;;;13.35;6.90;;;28.30;86.60;;;;;;4997546;28;20054;-81
2022/09/12 12:30:32;;;;;;;10.90;7.90;;;28.40;85.80;;;;;;5001899;28;20046;-78
2022/09/12 12:33:21;;;;;;;12.65;7.93;;;28.00;86.10;;;;;;5000156;28;20077;-80
2022/09/12 12:36:08;;;;;;;11.15;6.65;;;27.60;86.60;;;;;;5014043;28;20060;-83
2022/09/12 12:38:55;;;;;;;11.98;7.10;;;27.20;87.20;;;;;;5014083;28;20512;-79
2022/09/12 12:41:44;;;;;;;14.63;7.25;;;27.10;88.60;;;;;;5014542;28;20046;-80
2022/09/12 12:44:43;;;;;;;13.55;9.05;;;26.80;88.90;;;;;;5014906;28;20038;-80
2022/09/12 12:47:38;;;;;;;14.63;8.30;;;26.40;89.00;;;;;;5014935;28;20057;-82
2022/09/12 12:50:28;;;;;;;13.38;9.07;;;26.00;90.20;;;;;;4996966;28;20050;-78
2022/09/12 12:53:24;;;;;;;14.63;8.20;;;25.80;91.00;;;;;;4982474;28;20137;-78
2022/09/12 12:56:43;;;;;;;14.88;9.07;;;25.80;91.10;;;;;;5013612;28;20058;-78
2022/09/12 12:59:30;;;;;;;10.13;7.53;;;25.90;90.40;;;;;;4991419;28;20303;-78
2022/09/12 13:02:21;;;;;;;8.68;6.47;;;25.80;90.40;;;;;;4982449;28;20498;-83
2022/09/12 13:05:29;;;;;;;10.27;6.78;;;26.30;90.50;;;;;;5011933;28;20062;-80
2022/09/12 13:08:19;;;;;;;9.88;6.25;;;26.80;87.60;;;;;;5012876;28;20092;-79
2022/09/12 13:11:27;;;;;;;14.05;7.35;;;27.30;88.80;;;;;;4984387;28;20058;-81
2022/09/12 13:14:34;;;;;;;9.20;5.50;;;28.00;85.60;;;;;;5014523;28;20123;-78
2022/09/12 13:17:40;;;;;;;8.65;5.20;;;27.90;86.30;;;;;;4967822;28;20148;-81
2022/09/12 13:20:31;;;;;;;8.10;5.63;;;27.70;87.40;;;;;;4995871;28;20078;-79
2022/09/12 13:23:26;;;;;;;8.23;4.60;;;27.70;86.70;;;;;;4995419;28;20139;-78
2022/09/12 13:26:26;;;;;;;9.18;5.45;;;27.30;85.50;;;;;;5013239;28;20041;-77
2022/09/12 13:29:18;;;;;;;10.60;6.47;;;27.30;87.20;;;;;;4983136;28;20056;-77
2022/09/12 13:32:05;;;;;;;8.25;5.55;;;27.20;86.50;;;;;;5000060;28;20050;-79
2022/09/12 13:35:24;;;;;;;9.15;5.53;;;27.50;86.90;;;;;;4993201;28;20058;-81
2022/09/12 13:38:36;;;;;;;10.60;6.05;;;27.90;87.80;;;;;;4992490;28;20421;-79
2022/09/12 13:41:35;;;;;;;8.73;4.82;;;28.20;85.80;;;;;;4976436;28;20122;-79
2022/09/12 13:44:23;;;;;;;8.18;6.10;;;28.60;86.40;;;;;;4992678;28;20046;-79
2022/09/12 13:47:15;;;;;;;11.70;6.75;;;28.30;84.40;;;;;;4975697;28;20085;-78
2022/09/12 13:50:04;;;;;;;9.57;6.38;;;27.80;83.70;;;;;;4992278;28;20101;-78
2022/09/12 13:52:57;;;;;;;9.95;6.97;;;27.50;86.00;;;;;;4994620;28;20466;-76
2022/09/12 13:55:57;;;;;;;11.18;7.78;;;27.60;87.30;;;;;;4975759;28;20072;-79
2022/09/12 13:58:56;;;;;;;10.02;7.55;;;28.00;86.60;;;;;;4993326;28;20050;-79
2022/09/12 14:01:45;;;;;;;11.40;7.95;;;28.60;84.10;;;;;;4978009;28;20058;-79
2022/09/12 14:07:51;;;;;;;10.90;7.28;;;30.20;83.40;;;;;;4992472;28;20042;-79
2022/09/12 14:10:43;;;;;;;10.13;6.35;;;30.70;82.10;;;;;;4993363;28;20050;-81
2022/09/12 14:13:31;;;;;;;8.98;5.55;;;30.70;80.80;;;;;;4994398;28;20081;-79
2022/09/12 14:16:20;;;;;;;8.05;5.38;;;31.00;79.40;;;;;;4976872;28;20058;-78
2022/09/12 14:19:09;;;;;;;8.40;4.53;;;30.90;78.30;;;;;;4949724;28;20054;-79
2022/09/12 14:21:56;;;;;;;8.18;5.20;;;31.20;78.90;;;;;;4962136;28;20050;-79
2022/09/12 14:24:50;;;;;;;8.65;5.28;;;31.50;76.90;;;;;;4976897;28;20384;-81
2022/09/12 14:27:49;;;;;;;6.22;4.45;;;31.50;76.60;;;;;;4991793;28;20544;-80
2022/09/12 14:30:36;;;;;;;7.97;4.68;;;31.50;76.60;;;;;;4962789;28;20057;-79
2022/09/12 14:33:22;;;;;;;6.78;5.28;;;31.20;77.60;;;;;;5003824;28;20052;-79
2022/09/12 14:36:18;;;;;;;7.68;5.22;;;31.50;77.00;;;;;;4993632;28;20056;-79
2022/09/12 14:39:14;;;;;;;6.65;5.18;;;32.00;76.90;;;;;;5012446;28;20052;-80
2022/09/12 14:42:11;;;;;;;8.52;5.75;;;32.30;74.60;;;;;;5011442;28;20045;-78
2022/09/12 14:45:01;;;;;;;9.95;5.88;;;31.80;74.50;;;;;;4982199;28;20050;-79